Mora, Mora Municipal Airport (KJMR)

NameMora Municipal Airport
CityMora
CountryUnited States
ICAOKJMR
IATA
Altitude308 m
CoordinatesGoogle Map
Live Air TrafficLiveATC.net
METARKJMR 180056Z AUTO 30005KT 10SM BKN090 M10/M17 A3014 RMK AO2
2019-01-18 00:56:00 Wind: West-Northwest (300°) 2.57 m/s - Visibility: 16093.4 m - Temperature: -10 °C - Dew point: -17 °C - Humidity: 56.9% - Pressure: 1020.66 hPa
Statistics

The table below shows the detailed information of all flights to/from Mora, Mora Municipal Airport (KJMR).

Ident Aircraft Coming fromFrom Going toTo Owner nameOwnerSpotted durationDurationDate
N41NM - A109 - Nordwind Airlines N41NM SABCA A-109 A109 Mora, United States (KJMR) KJMR
42 km
, United States (KMIC) KMIC
69 km
Helifleet 2013-01 Llc Helifleet 2013-01 Llc 00:07:33 00:07:33 Wed, 02 Jan 2019 10:28:25 +0000 2/1/2019 10:28 am
Wed, 02 Jan 2019 10:35:58 +0000 2/1/2019 10:35 am
N41NM - A109 - Nordwind Airlines N41NM SABCA A-109 A109 Mora, United States (KJMR) KJMR
49 km
, United States (KMIC) KMIC
54 km
Helifleet 2013-01 Llc Helifleet 2013-01 Llc 00:30:04 00:30:04 Wed, 02 Jan 2019 06:08:03 +0000 2/1/2019 6:08 am
Wed, 02 Jan 2019 06:38:07 +0000 2/1/2019 6:38 am
N41NM - A109 - Nordwind Airlines N41NM SABCA A-109 A109 Mora, United States (KJMR) KJMR
103 km
, United States (KMIC) KMIC
13 km
Helifleet 2013-01 Llc Helifleet 2013-01 Llc 00:07:34 00:07:34 Wed, 02 Jan 2019 05:30:05 +0000 2/1/2019 5:30 am
Wed, 02 Jan 2019 05:37:39 +0000 2/1/2019 5:37 am